Terminal Aerodrome Forecast
Issued by NWS

Home | Current Version | Previous Version | Text Only | Print | Product List | Glossary Off
Versions: 1 2 3 4 5 6 7 8 9 10 11 12 13 14 15 16 17 18 19 20 21 22 23 24 25 26 27 28 29 30 31 32 33 34 35 36 37 38 39 40 41

000
FTUS43 KGRB 251300 AAA
TAFRHI
TAF AMD
KRHI 251320Z 2513/2612 VRB03KT 6SM BR SCT007 OVC015
      TEMPO 2513/2515 BKN007
     FM251500 24008KT P6SM OVC010
     FM251900 24012G20KT P6SM -SHSN BKN010
     FM260100 27010KT P6SM BKN050=

USA.gov is the U.S. government's official web portal to all federal, state and local government web resources and services.